createdAt,value
2022-10-17T00:00:48.398Z,10.35
2022-10-17T00:03:17.855Z,10.27
2022-10-17T00:05:49.257Z,10.45
2022-10-17T00:08:20.114Z,10.41
2022-10-17T00:10:58.286Z,10.36
2022-10-17T00:13:30.521Z,10.30
2022-10-17T00:16:00.215Z,10.26
2022-10-17T00:18:30.013Z,10.29
2022-10-17T00:20:59.393Z,10.35
2022-10-17T00:23:30.456Z,10.41
2022-10-17T00:26:03.321Z,10.44
2022-10-17T00:28:35.616Z,10.44
2022-10-17T00:31:07.609Z,10.51
2022-10-17T00:33:39.220Z,10.61
2022-10-17T00:36:10.565Z,10.54
2022-10-17T00:38:40.187Z,10.58
2022-10-17T00:41:14.606Z,10.58
2022-10-17T00:44:00.426Z,10.62
2022-10-17T00:46:31.432Z,10.32
2022-10-17T00:49:02.205Z,10.30
2022-10-17T00:51:36.480Z,10.34
2022-10-17T00:54:06.749Z,10.44
2022-10-17T00:56:36.316Z,10.44
2022-10-17T00:59:08.354Z,10.43
2022-10-17T01:01:37.841Z,10.45
2022-10-17T01:04:07.643Z,10.57
2022-10-17T01:06:37.060Z,10.56
2022-10-17T01:09:07.068Z,10.51
2022-10-17T01:11:41.436Z,10.61
2022-10-17T01:14:23.718Z,10.55
2022-10-17T01:16:56.864Z,10.52
2022-10-17T01:19:38.886Z,10.48
2022-10-17T01:22:12.754Z,10.51
2022-10-17T01:25:10.681Z,10.53
2022-10-17T01:27:53.808Z,10.65
2022-10-17T01:30:52.868Z,10.79
2022-10-17T01:33:33.509Z,10.78
2022-10-17T01:36:06.933Z,10.74
2022-10-17T01:38:38.614Z,10.89
2022-10-17T01:41:10.607Z,10.93
2022-10-17T01:43:43.110Z,10.79
2022-10-17T01:46:15.685Z,10.79
2022-10-17T01:48:48.797Z,10.88
2022-10-17T01:51:21.562Z,10.81
2022-10-17T01:53:55.695Z,10.90
2022-10-17T01:56:27.905Z,10.90
2022-10-17T01:59:00.477Z,10.97
2022-10-17T02:01:31.111Z,10.90
2022-10-17T02:04:04.201Z,10.88
2022-10-17T02:06:37.937Z,10.99
2022-10-17T02:09:19.130Z,10.84
2022-10-17T02:12:06.533Z,10.97
2022-10-17T02:14:44.289Z,10.97
2022-10-17T02:17:17.945Z,10.97
2022-10-17T02:19:58.106Z,10.89
2022-10-17T02:22:33.788Z,10.84
2022-10-17T02:25:06.494Z,10.77
2022-10-17T02:27:39.737Z,10.84
2022-10-17T02:30:12.233Z,10.98
2022-10-17T02:32:47.998Z,10.90
2022-10-17T02:35:23.713Z,10.99
2022-10-17T02:37:54.043Z,11.02
2022-10-17T02:40:25.455Z,10.94
2022-10-17T02:42:55.861Z,11.00
2022-10-17T02:45:26.741Z,10.99
2022-10-17T02:47:59.058Z,10.98
2022-10-17T02:50:38.786Z,11.04
2022-10-17T02:53:10.126Z,11.04
2022-10-17T02:55:43.753Z,11.12
2022-10-17T02:58:16.418Z,11.17
2022-10-17T03:00:46.594Z,11.28
2022-10-17T03:03:24.462Z,11.24
2022-10-17T03:05:56.909Z,11.22
2022-10-17T03:08:26.464Z,11.21
2022-10-17T03:10:55.850Z,11.30
2022-10-17T03:13:25.286Z,11.55
2022-10-17T03:15:54.656Z,11.75
2022-10-17T03:18:24.050Z,12.02
2022-10-17T03:20:56.036Z,12.10
2022-10-17T03:23:25.440Z,12.09
2022-10-17T03:25:54.828Z,12.07
2022-10-17T03:28:24.284Z,11.99
2022-10-17T03:30:53.688Z,11.88
2022-10-17T03:33:23.092Z,11.87
2022-10-17T03:35:52.537Z,11.73
2022-10-17T03:38:24.497Z,11.74
2022-10-17T03:40:57.860Z,11.81
2022-10-17T03:43:27.234Z,11.77
2022-10-17T03:45:56.594Z,11.70
2022-10-17T03:48:26.052Z,11.69
2022-10-17T03:51:01.670Z,11.78
2022-10-17T03:53:33.710Z,11.75
2022-10-17T03:56:12.400Z,11.74
2022-10-17T03:58:41.818Z,11.73
2022-10-17T04:01:12.807Z,11.71
2022-10-17T04:03:42.613Z,11.70
2022-10-17T04:06:14.267Z,11.64
2022-10-17T04:08:46.238Z,11.62
2022-10-17T04:11:17.929Z,11.66
2022-10-17T04:13:47.867Z,11.63
2022-10-17T04:16:19.181Z,11.66
2022-10-17T04:18:48.609Z,11.69
2022-10-17T04:21:18.718Z,11.63
2022-10-17T04:23:52.749Z,11.63
2022-10-17T04:26:22.162Z,11.56
2022-10-17T04:28:51.899Z,11.52
2022-10-17T04:31:21.534Z,11.53
2022-10-17T04:33:51.994Z,11.57
2022-10-17T04:36:23.397Z,11.51
2022-10-17T04:38:55.361Z,11.45
2022-10-17T04:41:25.910Z,11.46
2022-10-17T04:43:55.297Z,11.49
2022-10-17T04:46:24.957Z,11.54
2022-10-17T04:48:54.349Z,11.48
2022-10-17T04:51:26.520Z,11.46
2022-10-17T04:53:58.742Z,11.51
2022-10-17T04:56:28.333Z,11.47
2022-10-17T04:58:57.824Z,11.36
2022-10-17T05:01:27.317Z,11.25
2022-10-17T05:03:56.912Z,11.21
2022-10-17T05:06:28.204Z,11.19
2022-10-17T05:09:00.674Z,11.24
2022-10-17T05:11:31.294Z,11.28
2022-10-17T05:14:02.553Z,11.30
2022-10-17T05:16:32.610Z,11.24
2022-10-17T05:19:02.428Z,11.19
2022-10-17T05:24:24.970Z,11.21
2022-10-17T05:26:54.385Z,11.14
2022-10-17T05:29:24.066Z,11.08
2022-10-17T05:31:53.492Z,11.03
2022-10-17T05:34:23.032Z,11.06
2022-10-17T05:36:52.416Z,11.05
2022-10-17T05:39:23.369Z,11.11
2022-10-17T05:41:55.349Z,11.15
2022-10-17T05:44:24.724Z,11.12
2022-10-17T05:46:54.247Z,11.10
2022-10-17T05:49:33.841Z,11.08
2022-10-17T05:52:13.014Z,11.06
2022-10-17T05:54:42.383Z,11.08
2022-10-17T05:57:14.386Z,10.97
2022-10-17T05:59:43.807Z,10.98
2022-10-17T06:02:14.320Z,10.97
2022-10-17T06:04:46.058Z,10.93
2022-10-17T06:07:15.898Z,11.03
2022-10-17T06:12:18.343Z,11.05
2022-10-17T06:14:47.900Z,10.93
2022-10-17T06:17:17.306Z,11.04
2022-10-17T06:19:47.687Z,11.02
2022-10-17T06:22:17.317Z,10.94
2022-10-17T06:24:46.730Z,11.05
2022-10-17T06:27:18.740Z,11.11
2022-10-17T06:29:48.421Z,11.03
2022-10-17T06:32:17.855Z,11.04
2022-10-17T06:34:47.263Z,11.03
2022-10-17T06:37:16.662Z,11.20
2022-10-17T06:39:46.033Z,11.16
2022-10-17T06:42:18.022Z,11.15
2022-10-17T06:44:47.422Z,11.15
2022-10-17T06:47:19.934Z,11.18
2022-10-17T06:49:49.882Z,11.29
2022-10-17T06:52:19.822Z,11.19
2022-10-17T06:54:49.197Z,11.21
2022-10-17T06:57:21.193Z,11.30
2022-10-17T06:59:50.568Z,11.34
2022-10-17T07:02:20.514Z,11.38
2022-10-17T07:04:49.905Z,11.45
2022-10-17T07:07:19.288Z,11.75
2022-10-17T07:09:48.657Z,11.77
2022-10-17T07:12:18.038Z,12.12
2022-10-17T07:14:50.513Z,12.13
2022-10-17T07:17:20.018Z,12.12
2022-10-17T07:19:49.393Z,12.04
2022-10-17T07:22:18.784Z,12.04
2022-10-17T07:27:37.478Z,12.13
2022-10-17T07:30:11.420Z,12.31
2022-10-17T07:32:40.834Z,12.45
2022-10-17T07:35:11.158Z,12.50
2022-10-17T07:37:41.017Z,12.58
2022-10-17T07:40:13.455Z,12.66
2022-10-17T07:42:42.842Z,12.69
2022-10-17T07:45:15.717Z,12.78
2022-10-17T07:47:45.350Z,12.81
2022-10-17T07:50:14.829Z,12.90
2022-10-17T07:52:45.317Z,12.90
2022-10-17T07:55:14.702Z,13.05
2022-10-17T07:57:44.108Z,13.13
2022-10-17T08:00:16.666Z,13.24
2022-10-17T08:02:46.039Z,13.32
2022-10-17T08:05:15.458Z,13.40
2022-10-17T08:07:44.854Z,13.49
2022-10-17T08:10:15.294Z,13.56
2022-10-17T08:12:44.781Z,13.63
2022-10-17T08:15:16.758Z,13.69
2022-10-17T08:17:46.142Z,13.74
2022-10-17T08:20:15.578Z,13.79
2022-10-17T08:22:44.978Z,13.88
2022-10-17T08:25:14.378Z,13.93
2022-10-17T08:27:43.737Z,14.00
2022-10-17T08:30:16.705Z,14.12
2022-10-17T08:32:46.542Z,14.22
2022-10-17T08:35:16.324Z,14.30
2022-10-17T08:37:45.742Z,14.43
2022-10-17T08:40:20.778Z,14.47
2022-10-17T08:43:03.929Z,14.52
2022-10-17T08:45:39.002Z,14.56
2022-10-17T08:48:12.501Z,14.64
2022-10-17T08:50:45.722Z,14.72
2022-10-17T08:53:19.805Z,14.76
2022-10-17T08:55:50.607Z,14.84
2022-10-17T08:58:23.719Z,14.89
2022-10-17T09:01:01.726Z,14.90
2022-10-17T09:03:41.467Z,15.00
2022-10-17T09:06:20.731Z,15.10
2022-10-17T09:08:59.403Z,15.11
2022-10-17T09:11:41.887Z,15.20
2022-10-17T09:14:21.686Z,15.29
2022-10-17T09:17:07.317Z,15.32
2022-10-17T09:19:38.292Z,15.39
2022-10-17T09:22:11.832Z,15.40
2022-10-17T09:24:44.520Z,15.48
2022-10-17T09:27:22.734Z,15.53
2022-10-17T09:29:55.405Z,15.62
2022-10-17T09:32:29.025Z,15.66
2022-10-17T09:34:58.944Z,15.72
2022-10-17T09:37:33.702Z,15.72
2022-10-17T09:40:03.183Z,15.73
2022-10-17T09:42:33.334Z,15.76
2022-10-17T09:45:18.587Z,15.82
2022-10-17T09:47:58.440Z,15.89
2022-10-17T09:50:33.477Z,16.03
2022-10-17T09:53:08.543Z,16.08
2022-10-17T09:55:42.399Z,16.19
2022-10-17T09:58:13.024Z,16.22
2022-10-17T10:00:44.321Z,16.35
2022-10-17T10:03:18.841Z,16.44
2022-10-17T10:06:02.791Z,16.50
2022-10-17T10:08:34.472Z,16.57
2022-10-17T10:11:05.523Z,16.65
2022-10-17T10:13:36.066Z,16.71
2022-10-17T10:16:19.582Z,16.79
2022-10-17T10:18:52.253Z,16.86
2022-10-17T10:21:22.735Z,16.95
2022-10-17T10:24:08.462Z,16.97
2022-10-17T10:26:41.817Z,17.03
2022-10-17T10:29:25.688Z,17.08
2022-10-17T10:31:55.730Z,17.16
2022-10-17T10:34:29.611Z,17.25
2022-10-17T10:37:04.617Z,17.35
2022-10-17T10:39:39.811Z,17.45
2022-10-17T10:42:12.190Z,17.56
2022-10-17T10:44:42.542Z,17.62
2022-10-17T10:47:24.313Z,17.73
2022-10-17T10:50:19.936Z,17.75
2022-10-17T10:52:53.821Z,17.84
2022-10-17T10:55:26.945Z,17.86
2022-10-17T10:57:59.828Z,17.87
2022-10-17T11:00:30.858Z,17.88
2022-10-17T11:03:05.667Z,17.90
2022-10-17T11:05:47.750Z,17.88
2022-10-17T11:08:24.349Z,17.89
2022-10-17T11:11:13.706Z,17.88
2022-10-17T11:13:47.784Z,17.88
2022-10-17T11:16:26.150Z,17.89
2022-10-17T11:18:58.474Z,17.87
2022-10-17T11:21:38.276Z,17.89
2022-10-17T11:24:15.579Z,17.93
2022-10-17T11:26:49.517Z,17.98
2022-10-17T11:29:19.026Z,18.01
2022-10-17T11:31:53.615Z,18.06
2022-10-17T11:34:25.692Z,18.11
2022-10-17T11:37:00.747Z,18.17
2022-10-17T11:39:33.849Z,18.21
2022-10-17T11:42:06.900Z,18.25
2022-10-17T11:44:39.006Z,18.26
2022-10-17T11:47:25.598Z,18.28
2022-10-17T11:51:59.781Z,18.32
2022-10-17T11:52:56.954Z,18.35
2022-10-17T11:55:28.378Z,18.36
2022-10-17T11:58:04.932Z,18.34
2022-10-17T12:00:47.514Z,18.36
2022-10-17T12:03:28.631Z,18.31
2022-10-17T12:06:02.483Z,18.25
2022-10-17T12:08:39.264Z,18.19
2022-10-17T12:11:14.209Z,18.20
2022-10-17T12:13:56.355Z,18.12
2022-10-17T12:16:48.300Z,17.94
2022-10-17T12:19:35.917Z,17.41
2022-10-17T12:22:21.483Z,17.15
2022-10-17T12:25:01.951Z,16.77
2022-10-17T12:27:48.516Z,16.55
2022-10-17T12:30:21.238Z,16.30
2022-10-17T12:33:22.303Z,16.05
2022-10-17T12:35:52.916Z,15.96
2022-10-17T12:38:27.993Z,16.01
2022-10-17T12:41:07.977Z,15.95
2022-10-17T12:43:58.327Z,15.92
2022-10-17T12:46:51.932Z,15.90
2022-10-17T12:49:27.290Z,15.88
2022-10-17T12:52:22.208Z,15.86
2022-10-17T12:55:07.179Z,15.87
2022-10-17T12:57:46.443Z,15.86
2022-10-17T13:00:20.974Z,15.86
2022-10-17T13:02:50.710Z,15.88
2022-10-17T13:05:25.375Z,15.87
2022-10-17T13:07:55.406Z,15.86
2022-10-17T13:13:21.925Z,15.84
2022-10-17T13:15:52.033Z,15.86
2022-10-17T13:18:23.530Z,15.84
2022-10-17T13:21:01.561Z,15.75
2022-10-17T13:23:33.747Z,15.71
2022-10-17T13:26:09.868Z,15.69
2022-10-17T13:28:41.864Z,15.68
2022-10-17T13:31:29.744Z,15.55
2022-10-17T13:34:00.529Z,15.51
2022-10-17T13:36:30.621Z,15.47
2022-10-17T13:39:00.955Z,15.43
2022-10-17T13:41:37.050Z,15.43
2022-10-17T13:44:14.822Z,15.39
2022-10-17T13:46:44.373Z,15.37
2022-10-17T13:49:18.382Z,15.38
2022-10-17T13:51:49.450Z,15.37
2022-10-17T13:54:40.254Z,15.37
2022-10-17T13:57:20.935Z,15.37
2022-10-17T13:59:55.032Z,15.36
2022-10-17T14:02:26.918Z,15.37
2022-10-17T14:05:19.878Z,15.37
2022-10-17T14:10:45.395Z,15.41
2022-10-17T14:13:23.376Z,15.41
2022-10-17T14:15:55.699Z,15.41
2022-10-17T14:18:33.288Z,15.41
2022-10-17T14:24:10.698Z,15.39
2022-10-17T14:26:49.827Z,15.41
2022-10-17T14:29:26.861Z,15.41
2022-10-17T14:32:06.055Z,15.43
2022-10-17T14:34:37.680Z,15.43
2022-10-17T14:37:12.385Z,15.42
2022-10-17T14:39:42.085Z,15.43
2022-10-17T14:42:20.690Z,15.42
2022-10-17T14:44:52.310Z,15.44
2022-10-17T14:47:42.576Z,15.43
2022-10-17T14:50:24.826Z,15.45
2022-10-17T14:53:05.747Z,15.44
2022-10-17T14:55:37.174Z,15.45
2022-10-17T14:58:19.104Z,15.45
2022-10-17T15:00:48.475Z,15.44
2022-10-17T15:03:20.918Z,15.44
2022-10-17T15:05:50.998Z,15.44
2022-10-17T15:08:22.330Z,15.45
2022-10-17T15:10:53.435Z,15.45
2022-10-17T15:13:32.356Z,15.43
2022-10-17T15:16:02.946Z,15.44
2022-10-17T15:18:34.913Z,15.44
2022-10-17T15:21:05.192Z,15.44
2022-10-17T15:23:42.439Z,15.43
2022-10-17T15:26:16.809Z,15.44
2022-10-17T15:28:47.487Z,15.43
2022-10-17T15:31:18.601Z,15.44
2022-10-17T15:33:50.677Z,15.44
2022-10-17T15:36:22.865Z,15.44
2022-10-17T15:38:53.238Z,15.45
2022-10-17T15:41:22.953Z,15.44
2022-10-17T15:43:52.698Z,15.43
2022-10-17T15:46:25.361Z,15.41
2022-10-17T15:48:58.182Z,15.42
2022-10-17T15:51:27.674Z,15.41
2022-10-17T15:53:57.067Z,15.39
2022-10-17T15:56:29.773Z,15.39
2022-10-17T15:58:59.293Z,15.37
2022-10-17T16:01:31.395Z,15.38
2022-10-17T16:04:03.548Z,15.35
2022-10-17T16:06:32.964Z,15.37
2022-10-17T16:09:02.343Z,15.35
2022-10-17T16:11:34.438Z,15.34
2022-10-17T16:14:07.100Z,15.32
2022-10-17T16:16:36.917Z,15.30
2022-10-17T16:19:09.481Z,15.30
2022-10-17T16:21:41.132Z,15.24
2022-10-17T16:24:12.741Z,15.24
2022-10-17T16:26:42.423Z,15.25
2022-10-17T16:29:11.943Z,15.24
2022-10-17T16:31:45.009Z,15.23
2022-10-17T16:34:18.394Z,15.22
2022-10-17T16:36:47.777Z,15.21
2022-10-17T16:39:17.190Z,15.19
2022-10-17T16:41:46.638Z,15.17
2022-10-17T16:44:17.537Z,15.17
2022-10-17T16:46:47.277Z,15.14
2022-10-17T16:49:19.276Z,15.14
2022-10-17T16:51:48.687Z,15.13
2022-10-17T16:54:18.171Z,15.12
2022-10-17T16:56:47.561Z,15.10
2022-10-17T16:59:16.945Z,15.09
2022-10-17T17:01:46.347Z,15.09
2022-10-17T17:04:15.747Z,15.06
2022-10-17T17:06:47.717Z,15.06
2022-10-17T17:09:17.596Z,15.07
2022-10-17T17:11:46.978Z,15.06
2022-10-17T17:14:16.610Z,15.05
2022-10-17T17:16:46.044Z,15.03
2022-10-17T17:19:17.338Z,15.03
2022-10-17T17:21:51.036Z,15.03
2022-10-17T17:24:21.560Z,15.00
2022-10-17T17:26:53.657Z,14.99
2022-10-17T17:29:23.119Z,14.99
2022-10-17T17:31:52.833Z,14.95
2022-10-17T17:34:22.249Z,14.97
2022-10-17T17:36:54.209Z,14.98
2022-10-17T17:39:23.746Z,14.95
2022-10-17T17:41:53.144Z,14.93
2022-10-17T17:44:22.599Z,14.93
2022-10-17T17:46:51.993Z,14.93
2022-10-17T17:49:21.378Z,14.91
2022-10-17T17:51:50.832Z,14.92
2022-10-17T17:54:22.838Z,14.88
2022-10-17T17:56:52.206Z,14.88
2022-10-17T17:59:21.685Z,14.87
2022-10-17T18:01:51.136Z,14.87
2022-10-17T18:04:20.569Z,14.86
2022-10-17T18:06:49.941Z,14.84
2022-10-17T18:09:22.242Z,14.84
2022-10-17T18:11:51.627Z,14.83
2022-10-17T18:14:23.902Z,14.84
2022-10-17T18:16:53.411Z,14.86
2022-10-17T18:19:23.835Z,14.87
2022-10-17T18:21:53.276Z,14.90
2022-10-17T18:24:25.389Z,14.90
2022-10-17T18:26:59.626Z,14.94
2022-10-17T18:29:29.484Z,14.96
2022-10-17T18:31:58.887Z,14.98
2022-10-17T18:34:29.477Z,15.01
2022-10-17T18:36:58.911Z,15.07
2022-10-17T18:39:30.934Z,15.02
2022-10-17T18:42:00.557Z,14.96
2022-10-17T18:44:30.452Z,14.94
2022-10-17T18:47:03.087Z,15.01
2022-10-17T18:49:33.803Z,14.90
2022-10-17T18:52:03.221Z,14.83
2022-10-17T18:54:35.374Z,14.69
2022-10-17T18:57:04.851Z,14.60
2022-10-17T18:59:34.353Z,14.54
2022-10-17T19:02:03.856Z,14.27
2022-10-17T19:04:33.330Z,14.10
2022-10-17T19:07:02.689Z,13.97
2022-10-17T19:09:34.730Z,13.93
2022-10-17T19:12:04.142Z,13.88
2022-10-17T19:14:33.585Z,13.79
2022-10-17T19:17:04.058Z,13.79
2022-10-17T19:19:33.631Z,13.79
2022-10-17T19:22:03.453Z,13.77
2022-10-17T19:24:35.497Z,13.69
2022-10-17T19:27:06.867Z,13.67
2022-10-17T19:29:36.338Z,13.59
2022-10-17T19:32:12.104Z,13.61
2022-10-17T19:34:45.321Z,13.57
2022-10-17T19:37:14.733Z,13.59
2022-10-17T19:39:46.677Z,13.53
2022-10-17T19:42:16.063Z,13.50
2022-10-17T19:44:45.450Z,13.51
2022-10-17T19:47:14.836Z,13.48
2022-10-17T19:49:49.032Z,13.45
2022-10-17T19:52:19.348Z,13.40
2022-10-17T19:54:51.330Z,13.31
2022-10-17T19:57:20.729Z,13.29
2022-10-17T19:59:51.337Z,13.23
2022-10-17T20:02:23.057Z,13.23
2022-10-17T20:04:54.774Z,13.19
2022-10-17T20:07:35.969Z,13.16
2022-10-17T20:10:08.889Z,13.12
2022-10-17T20:12:38.310Z,13.06
2022-10-17T20:15:08.741Z,13.04
2022-10-17T20:17:38.142Z,13.03
2022-10-17T20:20:09.078Z,13.01
2022-10-17T20:22:38.517Z,12.98
2022-10-17T20:25:11.097Z,12.97
2022-10-17T20:27:40.590Z,12.99
2022-10-17T20:30:10.915Z,12.98
2022-10-17T20:32:40.678Z,12.95
2022-10-17T20:35:11.146Z,12.93
2022-10-17T20:37:42.731Z,12.94
2022-10-17T20:40:35.092Z,12.98
2022-10-17T20:43:04.904Z,12.94
2022-10-17T20:45:50.325Z,12.96
2022-10-17T20:48:21.217Z,12.92
2022-10-17T20:50:50.910Z,12.88
2022-10-17T20:53:37.490Z,12.95
2022-10-17T20:56:11.759Z,12.92
2022-10-17T20:58:41.152Z,12.89
2022-10-17T21:01:11.570Z,12.90
2022-10-17T21:03:45.461Z,12.92
2022-10-17T21:06:16.415Z,12.91
2022-10-17T21:08:46.148Z,12.92
2022-10-17T21:11:19.589Z,12.94
2022-10-17T21:13:49.891Z,12.95
2022-10-17T21:16:20.993Z,12.91
2022-10-17T21:18:50.958Z,12.91
2022-10-17T21:21:21.792Z,12.89
2022-10-17T21:23:52.535Z,12.90
2022-10-17T21:26:24.519Z,12.89
2022-10-17T21:28:53.927Z,12.87
2022-10-17T21:31:24.606Z,12.87
2022-10-17T21:33:55.757Z,12.87
2022-10-17T21:36:25.723Z,12.82
2022-10-17T21:38:56.834Z,12.82
2022-10-17T21:41:31.375Z,12.82
2022-10-17T21:44:02.444Z,12.83
2022-10-17T21:46:32.413Z,12.83
2022-10-17T21:49:02.687Z,12.82
2022-10-17T21:51:32.062Z,12.85
2022-10-17T21:54:04.425Z,12.83
2022-10-17T21:56:37.672Z,12.81
2022-10-17T21:59:07.633Z,12.81
2022-10-17T22:01:39.159Z,12.80
2022-10-17T22:04:10.769Z,12.80
2022-10-17T22:06:42.843Z,12.77
2022-10-17T22:09:15.592Z,12.79
2022-10-17T22:11:48.806Z,12.78
2022-10-17T22:14:19.669Z,12.80
2022-10-17T22:16:49.878Z,12.79
2022-10-17T22:19:20.871Z,12.80
2022-10-17T22:21:50.429Z,12.80
2022-10-17T22:24:23.435Z,12.79
2022-10-17T22:26:55.638Z,12.78
2022-10-17T22:29:25.098Z,12.80
2022-10-17T22:31:54.494Z,12.85
2022-10-17T22:34:23.913Z,12.83
2022-10-17T22:36:53.306Z,12.83
2022-10-17T22:39:22.740Z,12.83
2022-10-17T22:41:54.715Z,12.85
2022-10-17T22:44:24.103Z,12.83
2022-10-17T22:46:53.481Z,12.87
2022-10-17T22:49:22.864Z,12.86
2022-10-17T22:51:52.213Z,12.89
2022-10-17T22:54:21.580Z,12.88
2022-10-17T22:56:50.963Z,12.89
2022-10-17T22:59:23.046Z,12.88
2022-10-17T23:01:52.437Z,12.92
2022-10-17T23:04:21.847Z,12.94
2022-10-17T23:06:51.222Z,12.92
2022-10-17T23:09:20.647Z,12.90
2022-10-17T23:11:50.097Z,12.88
2022-10-17T23:14:19.568Z,12.87
2022-10-17T23:16:51.561Z,12.84
2022-10-17T23:19:21.006Z,12.83
2022-10-17T23:21:50.390Z,12.80
2022-10-17T23:24:20.006Z,12.81
2022-10-17T23:26:49.365Z,12.77
2022-10-17T23:29:18.846Z,12.76
2022-10-17T23:31:50.858Z,12.77
2022-10-17T23:34:20.302Z,12.76
2022-10-17T23:36:49.843Z,12.75
2022-10-17T23:39:19.262Z,12.75
2022-10-17T23:41:48.849Z,12.75
2022-10-17T23:44:19.241Z,12.76
2022-10-17T23:46:51.208Z,12.75
2022-10-17T23:49:20.638Z,12.73
2022-10-17T23:51:50.035Z,12.71
2022-10-17T23:54:19.638Z,12.68
2022-10-17T23:56:49.013Z,12.66
2022-10-17T23:59:18.472Z,12.65
